Time;durP1;ratioP1;P1;durP2;ratioP2;P2;SDS_P1;SDS_P2;PMS_P1;PMS_P2;Temp;Humidity;BMP_temperature;BMP_pressure;BME280_temperature;BME280_humidity;BME280_pressure;Samples;Min_cycle;Max_cycle;Signal;HPM_P1;HPM_P2
2022/01/07 00:00:27;;;;;;;2.10;1.50;;;21.60;30.10;;;;;;5149835;27;46969;-18
2022/01/07 00:02:56;;;;;;;2.40;1.70;;;21.70;30.20;;;;;;5150093;27;46803;-18
2022/01/07 00:05:23;;;;;;;1.30;1.20;;;21.70;30.10;;;;;;5150116;27;47193;-18
2022/01/07 00:07:50;;;;;;;2.67;1.70;;;21.70;30.10;;;;;;5149861;27;48237;-18
2022/01/07 00:10:18;;;;;;;2.17;1.45;;;21.60;30.10;;;;;;5149572;27;46951;-18
2022/01/07 00:12:44;;;;;;;1.98;1.30;;;21.60;30.00;;;;;;5149899;27;47013;-18
2022/01/07 00:15:11;;;;;;;1.70;1.40;;;21.60;30.10;;;;;;5149759;27;46998;-18
2022/01/07 00:17:38;;;;;;;1.25;1.15;;;21.60;30.00;;;;;;5147423;27;47925;-18
2022/01/07 00:20:09;;;;;;;1.20;1.10;;;21.60;30.00;;;;;;5137743;27;47754;-17
2022/01/07 00:22:35;;;;;;;1.67;1.30;;;21.60;30.00;;;;;;5149817;27;46988;-17
2022/01/07 00:25:02;;;;;;;1.38;1.27;;;21.60;30.00;;;;;;5136141;27;47025;-18
2022/01/07 00:27:29;;;;;;;1.73;1.13;;;21.60;30.00;;;;;;5127940;27;46937;-18
2022/01/07 00:29:56;;;;;;;1.50;1.30;;;21.60;30.00;;;;;;5128143;27;46887;-17
2022/01/07 00:32:22;;;;;;;1.67;1.20;;;21.60;30.00;;;;;;5128624;27;46882;-18
2022/01/07 00:34:49;;;;;;;2.28;1.23;;;21.60;30.00;;;;;;5128542;27;47307;-17
2022/01/07 00:37:17;;;;;;;1.90;1.20;;;21.60;30.00;;;;;;5127760;27;47964;-17
2022/01/07 00:39:45;;;;;;;1.05;0.98;;;21.60;30.00;;;;;;5128511;27;47144;-18
2022/01/07 00:42:12;;;;;;;1.33;1.20;;;21.60;30.00;;;;;;5128682;27;46860;-18
2022/01/07 00:44:39;;;;;;;1.65;1.20;;;21.60;30.00;;;;;;5128431;27;46857;-17
2022/01/07 00:47:05;;;;;;;1.73;1.20;;;21.60;30.00;;;;;;5128297;27;49065;-17
2022/01/07 00:49:32;;;;;;;1.33;1.10;;;21.60;30.00;;;;;;5128363;27;47120;-17
2022/01/07 00:52:01;;;;;;;1.77;1.10;;;21.60;30.00;;;;;;5128290;27;46923;-17
2022/01/07 00:54:29;;;;;;;1.13;1.00;;;21.60;29.90;;;;;;5128159;27;46922;-17
2022/01/07 00:56:55;;;;;;;1.30;1.02;;;21.60;29.90;;;;;;5127820;27;48819;-18
2022/01/07 00:59:22;;;;;;;1.30;1.20;;;21.60;29.90;;;;;;5128373;27;46894;-17
2022/01/07 01:01:49;;;;;;;1.45;1.00;;;21.60;29.90;;;;;;5127838;27;46817;-19
2022/01/07 01:04:15;;;;;;;1.40;0.90;;;21.50;29.80;;;;;;5128404;27;47350;-17
2022/01/07 01:06:42;;;;;;;1.05;0.95;;;21.50;29.80;;;;;;5127761;27;48845;-17
2022/01/07 01:09:09;;;;;;;1.20;1.10;;;21.60;29.90;;;;;;5128204;27;47435;-17
2022/01/07 01:11:37;;;;;;;1.60;1.08;;;21.50;29.80;;;;;;5127911;27;46977;-18
2022/01/07 01:14:04;;;;;;;1.60;1.02;;;21.50;29.90;;;;;;5128313;27;46935;-15
2022/01/07 01:16:30;;;;;;;2.05;0.90;;;21.50;29.80;;;;;;5127674;27;47935;-15
2022/01/07 01:18:57;;;;;;;0.90;0.90;;;21.50;29.80;;;;;;5127775;27;46853;-19
2022/01/07 01:21:24;;;;;;;1.88;1.15;;;21.50;29.80;;;;;;5127541;27;47003;-18
2022/01/07 01:23:51;;;;;;;1.17;0.95;;;21.50;29.80;;;;;;5128128;27;46896;-17
2022/01/07 01:26:18;;;;;;;0.90;0.90;;;21.50;29.80;;;;;;5127318;27;47091;-17
2022/01/07 01:28:46;;;;;;;1.27;0.90;;;21.50;29.70;;;;;;5127511;27;47279;-18
2022/01/07 01:31:14;;;;;;;0.80;0.80;;;21.50;29.80;;;;;;5127489;27;46796;-18
2022/01/07 01:33:41;;;;;;;0.90;0.90;;;21.50;29.80;;;;;;5127638;27;46926;-18
2022/01/07 01:36:08;;;;;;;1.35;0.95;;;21.50;29.80;;;;;;5127390;27;47980;-18
2022/01/07 01:38:35;;;;;;;1.25;1.00;;;21.50;29.80;;;;;;5127197;27;47480;-18
2022/01/07 01:41:02;;;;;;;1.23;0.93;;;21.50;29.80;;;;;;5127628;27;47015;-18
2022/01/07 01:43:29;;;;;;;1.20;0.73;;;21.50;29.70;;;;;;5127481;27;46898;-18
2022/01/07 01:45:57;;;;;;;0.90;0.90;;;21.50;29.70;;;;;;5127107;27;47767;-18
2022/01/07 01:48:23;;;;;;;1.02;0.80;;;21.50;29.70;;;;;;5126597;27;46985;-18
2022/01/07 01:50:50;;;;;;;1.10;1.00;;;21.50;29.70;;;;;;5126991;27;46895;-18
2022/01/07 01:53:17;;;;;;;1.02;0.75;;;21.50;29.70;;;;;;5127692;27;47077;-16
2022/01/07 01:55:44;;;;;;;0.90;0.88;;;21.50;29.70;;;;;;5127167;27;49072;-18
2022/01/07 01:58:11;;;;;;;0.82;0.80;;;21.50;29.70;;;;;;5127304;27;47423;-16
2022/01/07 02:00:38;;;;;;;0.90;0.90;;;21.50;29.70;;;;;;5126950;27;46949;-16
2022/01/07 02:03:06;;;;;;;1.55;0.80;;;21.50;29.70;;;;;;5127490;27;47033;-15
2022/01/07 02:05:33;;;;;;;0.85;0.82;;;21.50;29.70;;;;;;5126541;27;46812;-16
2022/01/07 02:08:00;;;;;;;1.00;0.88;;;21.50;29.70;;;;;;5126871;27;47045;-16
2022/01/07 02:10:26;;;;;;;1.20;0.95;;;21.50;29.70;;;;;;5126943;27;46975;-15
2022/01/07 02:12:53;;;;;;;0.88;0.80;;;21.40;29.70;;;;;;5127645;27;46849;-16
2022/01/07 02:15:20;;;;;;;1.00;0.90;;;21.50;29.70;;;;;;5126839;27;49037;-15
2022/01/07 02:17:48;;;;;;;1.00;0.90;;;21.50;29.70;;;;;;5126944;27;46834;-15
2022/01/07 02:20:18;;;;;;;1.38;0.95;;;21.50;29.70;;;;;;5126537;27;46877;-16
2022/01/07 02:22:45;;;;;;;0.82;0.82;;;21.50;29.70;;;;;;5127242;27;46893;-15
2022/01/07 02:25:13;;;;;;;1.10;1.02;;;21.50;29.70;;;;;;5126329;27;46890;-16
2022/01/07 02:27:40;;;;;;;1.30;0.90;;;21.50;29.70;;;;;;5126878;27;47385;-16
2022/01/07 02:30:08;;;;;;;1.38;0.73;;;21.50;29.70;;;;;;5126848;27;46879;-16
2022/01/07 02:32:35;;;;;;;1.17;0.80;;;21.50;29.70;;;;;;5126827;27;46877;-16
2022/01/07 02:35:02;;;;;;;1.05;0.80;;;21.50;29.70;;;;;;5126555;27;48136;-16
2022/01/07 02:37:30;;;;;;;0.90;0.90;;;21.50;29.70;;;;;;5126675;27;46965;-16
2022/01/07 02:39:57;;;;;;;1.13;1.00;;;21.50;29.70;;;;;;5126341;27;46826;-16
2022/01/07 02:42:25;;;;;;;1.38;0.90;;;21.40;29.60;;;;;;5126729;27;47280;-17
2022/01/07 02:44:52;;;;;;;1.10;0.88;;;21.50;29.70;;;;;;5126253;27;47838;-16
2022/01/07 02:47:19;;;;;;;0.80;0.80;;;21.50;29.70;;;;;;5126287;27;47026;-16
2022/01/07 02:49:46;;;;;;;0.80;0.80;;;21.50;29.70;;;;;;5126604;27;46900;-16
2022/01/07 02:52:13;;;;;;;1.70;1.10;;;21.50;29.60;;;;;;5126411;27;47312;-16
2022/01/07 02:54:41;;;;;;;0.80;0.80;;;21.40;29.60;;;;;;5126108;27;47927;-16
2022/01/07 02:57:08;;;;;;;0.80;0.77;;;21.40;29.60;;;;;;5125891;27;46789;-16
2022/01/07 02:59:34;;;;;;;0.75;0.75;;;21.40;29.50;;;;;;5127616;27;46901;-16
2022/01/07 03:02:01;;;;;;;0.80;0.80;;;21.40;29.60;;;;;;5129803;27;47133;-16
2022/01/07 03:04:28;;;;;;;0.73;0.70;;;21.40;29.60;;;;;;5129961;27;48106;-16
2022/01/07 03:06:55;;;;;;;1.02;0.90;;;21.40;29.60;;;;;;5129460;27;46813;-16
2022/01/07 03:09:22;;;;;;;0.75;0.75;;;21.40;29.60;;;;;;5129796;27;46883;-16
2022/01/07 03:11:50;;;;;;;1.08;0.70;;;21.40;29.50;;;;;;5130023;27;47266;-16
2022/01/07 03:14:16;;;;;;;1.63;0.90;;;21.40;29.60;;;;;;5129610;27;48694;-16
2022/01/07 03:16:43;;;;;;;0.70;0.70;;;21.40;29.60;;;;;;5129495;27;47581;-17
2022/01/07 03:19:10;;;;;;;1.15;0.70;;;21.40;29.60;;;;;;5129627;27;47075;-16
2022/01/07 03:21:37;;;;;;;1.13;1.02;;;21.40;29.50;;;;;;5129532;27;46874;-16
2022/01/07 03:24:04;;;;;;;0.90;0.88;;;21.40;29.60;;;;;;5129474;27;46845;-16
2022/01/07 03:26:30;;;;;;;0.55;0.55;;;21.40;29.60;;;;;;5129102;27;47022;-16
2022/01/07 03:28:58;;;;;;;0.73;0.73;;;21.40;29.50;;;;;;5129796;27;47016;-16
2022/01/07 03:31:25;;;;;;;0.70;0.70;;;21.40;29.50;;;;;;5129764;27;46943;-16
2022/01/07 03:33:52;;;;;;;1.48;0.80;;;21.40;29.50;;;;;;5129444;27;49148;-16
2022/01/07 03:36:19;;;;;;;1.23;0.95;;;21.40;29.50;;;;;;5129462;27;46964;-16
2022/01/07 03:38:45;;;;;;;1.05;0.70;;;21.40;29.50;;;;;;5129695;27;46995;-17
2022/01/07 03:41:12;;;;;;;0.75;0.68;;;21.40;29.50;;;;;;5129179;27;46964;-15
2022/01/07 03:43:39;;;;;;;0.80;0.80;;;21.40;29.50;;;;;;5129150;27;48196;-16
2022/01/07 03:46:07;;;;;;;1.80;0.90;;;21.40;29.50;;;;;;5129353;27;46994;-16
2022/01/07 03:48:33;;;;;;;0.82;0.63;;;21.40;29.50;;;;;;5129424;27;46969;-15
2022/01/07 03:51:00;;;;;;;0.90;0.82;;;21.40;29.50;;;;;;5129134;27;46899;-18
2022/01/07 03:53:27;;;;;;;0.63;0.60;;;21.40;29.40;;;;;;5129286;27;49036;-17
2022/01/07 03:55:53;;;;;;;1.02;0.80;;;21.40;29.50;;;;;;5128863;27;46945;-17
2022/01/07 03:58:20;;;;;;;1.48;0.90;;;21.40;29.50;;;;;;5129302;27;46877;-16
2022/01/07 04:00:47;;;;;;;0.70;0.70;;;21.40;29.40;;;;;;5128904;27;46902;-16
2022/01/07 04:03:16;;;;;;;0.88;0.77;;;21.40;29.40;;;;;;5129044;27;48138;-16
2022/01/07 04:05:43;;;;;;;1.40;0.80;;;21.40;29.50;;;;;;5128978;27;47436;-16
2022/01/07 04:08:09;;;;;;;1.10;0.80;;;21.40;29.50;;;;;;5129157;27;46813;-16
2022/01/07 04:10:36;;;;;;;1.08;0.80;;;21.40;29.50;;;;;;5128297;27;46935;-16
2022/01/07 04:13:03;;;;;;;0.70;0.70;;;21.40;29.50;;;;;;5128688;27;48217;-16
2022/01/07 04:15:30;;;;;;;1.65;1.00;;;21.40;29.50;;;;;;5128741;27;46996;-17
2022/01/07 04:17:57;;;;;;;2.15;0.90;;;21.40;29.50;;;;;;5129258;27;46807;-16
2022/01/07 04:20:26;;;;;;;0.60;0.60;;;21.40;29.50;;;;;;5128961;27;46926;-16
2022/01/07 04:22:53;;;;;;;1.25;1.00;;;21.30;29.40;;;;;;5128818;27;47945;-16
2022/01/07 04:25:20;;;;;;;0.63;0.63;;;21.30;29.40;;;;;;5128238;27;46766;-16
2022/01/07 04:27:48;;;;;;;0.77;0.70;;;21.30;29.50;;;;;;5128940;27;46922;-16
2022/01/07 04:30:14;;;;;;;1.17;0.80;;;21.40;29.50;;;;;;5128865;27;46898;-16
2022/01/07 04:32:42;;;;;;;0.80;0.80;;;21.40;29.40;;;;;;5128359;27;48362;-17
2022/01/07 04:35:09;;;;;;;0.90;0.90;;;21.30;29.40;;;;;;5128567;27;46945;-16
2022/01/07 04:37:37;;;;;;;0.68;0.68;;;21.40;29.50;;;;;;5128540;27;46747;-16
2022/01/07 04:40:05;;;;;;;1.45;1.00;;;21.40;29.40;;;;;;5128768;27;47017;-16
2022/01/07 04:42:32;;;;;;;0.70;0.70;;;21.40;29.40;;;;;;5128197;27;48101;-16
2022/01/07 04:44:58;;;;;;;1.23;0.82;;;21.40;29.40;;;;;;5128192;27;47426;-16
2022/01/07 04:47:26;;;;;;;0.73;0.60;;;21.30;29.50;;;;;;5128475;27;46887;-15
2022/01/07 04:49:53;;;;;;;1.45;0.70;;;21.30;29.40;;;;;;5128398;27;46945;-16
2022/01/07 04:52:21;;;;;;;0.75;0.70;;;21.30;29.40;;;;;;5128292;27;48763;-17
2022/01/07 04:54:49;;;;;;;0.65;0.65;;;21.30;29.50;;;;;;5128051;27;47415;-17
2022/01/07 04:57:15;;;;;;;0.93;0.70;;;21.30;29.40;;;;;;5128492;27;46758;-16
2022/01/07 04:59:42;;;;;;;0.77;0.70;;;21.30;29.40;;;;;;5128535;27;47133;-17
2022/01/07 05:02:09;;;;;;;1.25;0.80;;;21.30;29.30;;;;;;5127813;27;46846;-17
2022/01/07 05:04:35;;;;;;;0.70;0.70;;;21.40;29.40;;;;;;5128136;27;47232;-16
2022/01/07 05:07:02;;;;;;;0.80;0.77;;;21.40;29.40;;;;;;5128178;27;46914;-16
2022/01/07 05:09:29;;;;;;;0.93;0.80;;;21.40;29.30;;;;;;5128375;27;46902;-16
2022/01/07 05:11:57;;;;;;;1.27;0.95;;;21.40;29.30;;;;;;5127834;27;47815;-16
2022/01/07 05:14:24;;;;;;;3.28;2.40;;;21.30;29.30;;;;;;5128031;27;46980;-16
2022/01/07 05:16:51;;;;;;;5.55;3.25;;;21.30;29.30;;;;;;5128070;27;46998;-16
2022/01/07 05:19:17;;;;;;;4.28;2.72;;;21.30;29.40;;;;;;5127819;27;46956;-16
2022/01/07 05:21:44;;;;;;;5.40;3.10;;;21.30;29.30;;;;;;5127799;27;48780;-17
2022/01/07 05:24:11;;;;;;;4.47;2.70;;;21.30;29.30;;;;;;5127887;27;46870;-17
2022/01/07 05:26:37;;;;;;;4.53;3.05;;;21.30;29.30;;;;;;5127565;27;46900;-17
2022/01/07 05:29:05;;;;;;;4.22;2.67;;;21.30;29.40;;;;;;5127738;27;47094;-16
2022/01/07 05:31:32;;;;;;;4.47;2.38;;;21.30;29.40;;;;;;5127430;27;48811;-16
2022/01/07 05:33:59;;;;;;;3.78;2.38;;;21.30;29.30;;;;;;5127874;27;46736;-16
2022/01/07 05:36:26;;;;;;;3.47;2.33;;;21.30;29.30;;;;;;5127512;27;47007;-16
2022/01/07 05:38:52;;;;;;;3.83;2.20;;;21.30;29.30;;;;;;5128062;27;47306;-17
2022/01/07 05:41:19;;;;;;;3.58;2.03;;;21.30;29.30;;;;;;5127264;27;47903;-16
2022/01/07 05:43:46;;;;;;;2.90;2.05;;;21.40;29.30;;;;;;5127250;27;46825;-17
2022/01/07 05:46:15;;;;;;;4.25;2.47;;;21.30;29.30;;;;;;5127138;27;46806;-16
2022/01/07 05:48:42;;;;;;;3.38;2.20;;;21.30;29.30;;;;;;5127686;27;47301;-16
2022/01/07 05:51:09;;;;;;;3.42;2.17;;;21.30;29.30;;;;;;5127142;27;49244;-17
2022/01/07 05:53:36;;;;;;;3.42;2.30;;;21.30;29.30;;;;;;5127295;27;46826;-16
2022/01/07 05:56:03;;;;;;;2.83;1.90;;;21.30;29.30;;;;;;5126885;27;47002;-16
2022/01/07 05:58:29;;;;;;;2.78;1.80;;;21.30;29.30;;;;;;5127421;27;47289;-17
2022/01/07 06:00:56;;;;;;;2.90;1.95;;;21.30;29.30;;;;;;5126913;27;49156;-16
2022/01/07 06:03:24;;;;;;;3.13;1.80;;;21.30;29.30;;;;;;5127209;27;47077;-17
2022/01/07 06:05:51;;;;;;;3.20;1.80;;;21.30;29.30;;;;;;5126663;27;46921;-16
2022/01/07 06:08:17;;;;;;;3.88;2.05;;;21.40;29.30;;;;;;5127368;27;46935;-17
2022/01/07 06:10:44;;;;;;;3.35;2.03;;;21.40;29.30;;;;;;5127010;27;49054;-16
2022/01/07 06:13:11;;;;;;;2.50;1.60;;;21.40;29.30;;;;;;5127097;27;47329;-17
2022/01/07 06:15:37;;;;;;;2.53;1.60;;;21.30;29.20;;;;;;5126829;27;47030;-16
2022/01/07 06:18:04;;;;;;;2.42;1.50;;;21.40;29.30;;;;;;5127232;27;46830;-16
2022/01/07 06:20:33;;;;;;;2.70;1.58;;;21.40;29.30;;;;;;5126635;27;46834;-16
2022/01/07 06:23:00;;;;;;;2.22;1.40;;;21.40;28.90;;;;;;5126659;27;46825;-17
2022/01/07 06:25:27;;;;;;;2.85;1.58;;;21.40;29.30;;;;;;5125813;27;46950;-17
2022/01/07 06:27:53;;;;;;;2.17;1.40;;;21.30;29.30;;;;;;5126946;27;46926;-17
2022/01/07 06:30:20;;;;;;;1.95;1.50;;;21.40;29.40;;;;;;5126442;27;48960;-16
2022/01/07 06:32:47;;;;;;;2.05;1.50;;;21.40;29.30;;;;;;5126771;27;47209;-16
2022/01/07 06:35:14;;;;;;;2.00;1.60;;;21.40;29.30;;;;;;5125814;27;46852;-16
2022/01/07 06:37:42;;;;;;;1.88;1.48;;;21.30;29.30;;;;;;5126897;27;46886;-17
2022/01/07 06:40:09;;;;;;;2.65;1.60;;;21.30;29.30;;;;;;5126454;27;47855;-16
2022/01/07 06:42:36;;;;;;;2.17;1.30;;;21.30;29.30;;;;;;5126317;27;46910;-16
2022/01/07 06:45:04;;;;;;;2.67;1.40;;;21.30;29.30;;;;;;5126326;27;46742;-17
2022/01/07 06:47:31;;;;;;;2.90;1.75;;;21.30;29.30;;;;;;5126577;27;46789;-15
2022/01/07 06:49:57;;;;;;;2.08;1.60;;;21.30;29.40;;;;;;5126194;27;47932;-16
2022/01/07 06:52:24;;;;;;;1.55;1.30;;;21.30;29.30;;;;;;5126211;27;47287;-17
2022/01/07 06:54:52;;;;;;;2.05;1.70;;;21.30;29.30;;;;;;5126013;27;46878;-16
2022/01/07 06:57:19;;;;;;;1.42;1.30;;;21.30;29.30;;;;;;5126659;27;46922;-17
2022/01/07 06:59:46;;;;;;;2.20;1.50;;;21.40;29.30;;;;;;5126107;27;47817;-16
2022/01/07 07:02:12;;;;;;;1.80;1.35;;;21.40;29.30;;;;;;5126221;27;46888;-17
2022/01/07 07:04:39;;;;;;;2.10;1.50;;;21.40;29.30;;;;;;5126418;27;46883;-17
2022/01/07 07:07:06;;;;;;;1.63;1.38;;;21.40;29.30;;;;;;5126342;27;47393;-16
2022/01/07 07:09:33;;;;;;;1.75;1.40;;;21.30;29.30;;;;;;5126260;27;46950;-16
2022/01/07 07:12:01;;;;;;;1.45;1.23;;;21.30;29.30;;;;;;5125941;27;46828;-17
2022/01/07 07:14:28;;;;;;;1.67;1.38;;;21.40;29.30;;;;;;5125998;27;47273;-16
2022/01/07 07:16:54;;;;;;;2.15;1.30;;;21.40;29.30;;;;;;5125914;27;46862;-16
2022/01/07 07:19:22;;;;;;;1.95;1.42;;;21.40;29.30;;;;;;5125575;27;48639;-16
2022/01/07 07:21:49;;;;;;;1.55;1.45;;;21.40;29.40;;;;;;5125967;27;46894;-16
2022/01/07 07:24:16;;;;;;;1.40;1.30;;;21.40;29.30;;;;;;5125927;27;46825;-17
2022/01/07 07:26:42;;;;;;;1.95;1.33;;;21.40;29.30;;;;;;5125715;27;46905;-17
2022/01/07 07:29:10;;;;;;;1.13;1.02;;;21.30;29.30;;;;;;5125688;27;46928;-16
2022/01/07 07:31:39;;;;;;;2.13;1.33;;;21.40;29.40;;;;;;5125770;27;47222;-16
2022/01/07 07:34:31;;;;;;;1.50;1.10;;;21.40;29.30;;;;;;5126080;27;46851;-17
2022/01/07 07:36:57;;;;;;;1.17;1.08;;;21.40;29.40;;;;;;5125929;27;46855;-17
2022/01/07 07:39:24;;;;;;;1.42;1.30;;;21.30;29.30;;;;;;5125929;27;48045;-16
2022/01/07 07:41:51;;;;;;;1.80;1.30;;;21.40;29.40;;;;;;5125450;27;46895;-16
2022/01/07 07:44:19;;;;;;;1.23;1.10;;;21.40;29.30;;;;;;5126014;27;46751;-17
2022/01/07 07:46:45;;;;;;;1.35;1.10;;;21.40;29.40;;;;;;5127292;27;46816;-16
2022/01/07 07:49:13;;;;;;;2.75;1.23;;;21.40;29.40;;;;;;5129218;27;48240;-17
2022/01/07 07:51:39;;;;;;;1.88;1.30;;;21.30;29.30;;;;;;5128887;27;46979;-16
2022/01/07 07:54:06;;;;;;;1.40;1.25;;;21.40;29.40;;;;;;5129049;27;47166;-16
2022/01/07 07:56:33;;;;;;;1.23;1.13;;;21.40;29.30;;;;;;5129251;27;47030;-16
2022/01/07 07:59:00;;;;;;;1.40;1.13;;;21.30;29.30;;;;;;5129201;27;49106;-17
2022/01/07 08:01:28;;;;;;;1.48;1.17;;;21.40;29.40;;;;;;5128765;27;47483;-16
2022/01/07 08:03:55;;;;;;;1.20;1.10;;;21.40;29.40;;;;;;5129106;27;46809;-16
2022/01/07 08:06:21;;;;;;;2.03;1.25;;;21.40;29.40;;;;;;5128512;27;47284;-16
2022/01/07 08:08:48;;;;;;;2.45;1.25;;;21.40;29.40;;;;;;5128914;27;47946;-17
2022/01/07 08:11:15;;;;;;;1.98;1.35;;;21.40;29.90;;;;;;5128757;27;46830;-17
2022/01/07 08:16:28;;;;;;;1.40;1.10;;;21.40;29.40;;;;;;5128004;27;46852;-17
2022/01/07 08:18:56;;;;;;;1.10;1.00;;;21.40;29.40;;;;;;5128825;27;48155;-16
2022/01/07 08:21:24;;;;;;;1.27;1.17;;;21.40;29.20;;;;;;5128350;27;47104;-17
2022/01/07 08:23:51;;;;;;;1.50;1.20;;;21.40;29.20;;;;;;5127662;27;47032;-16
2022/01/07 08:26:18;;;;;;;1.02;1.02;;;21.40;29.40;;;;;;5127219;27;46920;-16
2022/01/07 08:28:48;;;;;;;1.20;1.10;;;21.40;29.40;;;;;;5128517;27;46833;-16
2022/01/07 08:34:52;;;;;;;1.52;1.10;;;21.40;29.40;;;;;;5128342;27;46928;-16
2022/01/07 08:36:57;;;;;;;1.80;1.20;;;21.40;29.40;;;;;;5128260;27;46881;-16
2022/01/07 08:39:24;;;;;;;1.23;1.10;;;21.40;29.50;;;;;;5128414;27;47991;-16
2022/01/07 08:41:51;;;;;;;1.35;1.10;;;21.40;29.50;;;;;;5127749;27;47480;-16
2022/01/07 08:44:19;;;;;;;2.03;1.15;;;21.40;29.50;;;;;;5146753;27;47040;-16
2022/01/07 08:46:46;;;;;;;1.08;1.00;;;21.40;29.40;;;;;;5148126;27;46918;-16
2022/01/07 08:49:15;;;;;;;1.90;1.10;;;21.40;29.50;;;;;;5147945;27;48302;-16
2022/01/07 08:51:41;;;;;;;1.08;0.93;;;21.40;29.40;;;;;;5147634;27;47092;-16
2022/01/07 08:54:08;;;;;;;1.35;1.00;;;21.40;29.50;;;;;;5148057;27;46992;-16
2022/01/07 08:56:35;;;;;;;2.38;1.10;;;21.40;29.50;;;;;;5151014;27;47344;-16
2022/01/07 08:59:02;;;;;;;1.65;1.00;;;21.40;29.50;;;;;;5147050;27;49153;-16
2022/01/07 09:01:29;;;;;;;1.10;1.00;;;21.40;29.60;;;;;;5148087;27;47091;-16
2022/01/07 09:03:56;;;;;;;1.00;1.00;;;21.40;29.10;;;;;;5148323;27;46793;-17
2022/01/07 09:06:24;;;;;;;1.00;0.80;;;21.50;29.60;;;;;;5148602;27;46953;-16
2022/01/07 09:08:50;;;;;;;1.00;0.90;;;21.50;29.60;;;;;;5148569;27;47933;-17
2022/01/07 09:11:17;;;;;;;1.92;1.00;;;21.50;29.50;;;;;;5148406;27;46909;-16
2022/01/07 09:13:45;;;;;;;0.88;0.73;;;21.50;29.60;;;;;;5148627;27;46892;-16
2022/01/07 09:16:12;;;;;;;2.25;0.80;;;21.40;29.50;;;;;;5148524;27;46861;-16
2022/01/07 09:18:39;;;;;;;0.82;0.80;;;21.50;29.50;;;;;;5148824;27;46746;-18
2022/01/07 09:21:05;;;;;;;0.90;0.80;;;21.50;29.50;;;;;;5148402;27;46867;-16
2022/01/07 09:23:34;;;;;;;1.23;0.90;;;21.50;29.60;;;;;;5148746;27;47186;-16
2022/01/07 09:26:01;;;;;;;1.27;0.90;;;21.50;29.50;;;;;;5147978;27;47026;-16
2022/01/07 09:28:27;;;;;;;1.10;1.00;;;21.50;29.40;;;;;;5148626;27;46895;-17
2022/01/07 09:30:54;;;;;;;1.10;1.00;;;21.50;29.60;;;;;;5148395;27;47010;-16
2022/01/07 09:33:21;;;;;;;1.05;0.95;;;21.50;29.60;;;;;;5148748;27;47025;-17
2022/01/07 09:35:50;;;;;;;0.90;0.90;;;21.50;29.70;;;;;;5148444;27;46877;-16
2022/01/07 09:38:17;;;;;;;1.33;0.90;;;21.50;29.70;;;;;;5148189;27;47668;-16
2022/01/07 09:40:45;;;;;;;1.33;1.00;;;21.50;29.60;;;;;;5148256;27;46894;-16
2022/01/07 09:43:14;;;;;;;0.80;0.73;;;21.50;29.40;;;;;;5148117;27;47021;-17
2022/01/07 09:45:41;;;;;;;1.27;1.00;;;21.50;29.60;;;;;;5148109;27;46796;-16
2022/01/07 09:48:09;;;;;;;3.30;0.95;;;21.50;29.50;;;;;;5147955;27;48891;-16
2022/01/07 09:50:36;;;;;;;0.90;0.80;;;21.50;29.50;;;;;;5147896;27;46994;-16
2022/01/07 09:53:05;;;;;;;1.00;0.95;;;21.50;29.40;;;;;;5148042;27;46875;-17
2022/01/07 09:55:32;;;;;;;1.30;1.05;;;21.50;28.90;;;;;;5147678;27;47315;-16
2022/01/07 09:58:00;;;;;;;2.60;0.80;;;21.40;28.50;;;;;;5147981;27;48921;-17
2022/01/07 10:00:32;;;;;;;1.50;1.10;;;21.40;28.80;;;;;;5147959;27;47152;-16
2022/01/07 10:03:00;;;;;;;1.42;0.70;;;21.30;29.00;;;;;;5148072;27;46750;-16
2022/01/07 10:05:27;;;;;;;1.52;1.00;;;21.20;29.10;;;;;;5148023;27;46925;-16
2022/01/07 10:07:53;;;;;;;1.65;0.90;;;21.20;29.10;;;;;;5147943;27;48799;-17
2022/01/07 10:10:20;;;;;;;1.75;0.95;;;21.20;29.20;;;;;;5146601;27;47148;-16
2022/01/07 10:12:52;;;;;;;3.50;1.00;;;21.10;29.30;;;;;;5147807;27;46731;-17
2022/01/07 10:15:21;;;;;;;0.90;0.75;;;21.00;29.30;;;;;;5147745;27;46988;-16
2022/01/07 10:17:56;;;;;;;4.60;1.10;;;20.90;29.30;;;;;;5147374;27;46782;-16
2022/01/07 10:20:23;;;;;;;1.30;0.93;;;20.90;29.40;;;;;;5147417;27;47261;-16
2022/01/07 10:22:52;;;;;;;4.13;1.15;;;20.80;29.50;;;;;;5147414;27;47077;-16
2022/01/07 10:25:23;;;;;;;1.92;1.00;;;20.70;29.60;;;;;;5147093;27;47040;-16
2022/01/07 10:27:51;;;;;;;4.97;1.17;;;20.60;29.70;;;;;;5147211;27;46980;-16
2022/01/07 10:30:26;;;;;;;3.90;1.20;;;20.50;30.30;;;;;;5147161;27;47112;-16
2022/01/07 10:32:54;;;;;;;2.72;1.08;;;20.50;29.90;;;;;;5147720;27;47075;-16
2022/01/07 10:35:21;;;;;;;2.63;1.23;;;20.40;30.00;;;;;;5147553;27;46886;-15
2022/01/07 10:37:54;;;;;;;4.22;1.00;;;20.30;30.20;;;;;;5147306;27;48801;-15
2022/01/07 10:40:36;;;;;;;4.28;1.15;;;20.20;30.90;;;;;;5147218;27;47474;-16
2022/01/07 10:43:14;;;;;;;2.80;1.15;;;20.10;30.40;;;;;;5144596;27;46880;-16
2022/01/07 10:45:43;;;;;;;3.25;1.10;;;20.10;30.60;;;;;;5147124;27;46930;-16
2022/01/07 10:48:10;;;;;;;3.70;1.60;;;20.00;30.80;;;;;;5146610;27;47931;-15
2022/01/07 10:50:40;;;;;;;2.78;1.10;;;19.90;31.00;;;;;;5145787;27;47045;-16
2022/01/07 10:53:19;;;;;;;4.10;1.25;;;19.80;31.10;;;;;;5147211;27;46808;-16
2022/01/07 10:56:05;;;;;;;2.83;1.30;;;19.80;30.70;;;;;;5144198;27;47057;-16
2022/01/07 10:58:49;;;;;;;1.02;0.80;;;19.70;31.50;;;;;;5146010;27;47803;-16
2022/01/07 11:01:32;;;;;;;3.75;1.17;;;19.60;31.60;;;;;;5147202;27;46827;-16
2022/01/07 11:03:59;;;;;;;1.42;0.93;;;19.50;31.80;;;;;;5146859;27;46822;-16
2022/01/07 11:06:27;;;;;;;2.28;1.08;;;19.40;31.80;;;;;;5147079;27;46851;-16
2022/01/07 11:08:55;;;;;;;3.00;1.05;;;19.40;32.00;;;;;;5145877;27;49113;-16
2022/01/07 11:11:22;;;;;;;0.85;0.85;;;19.30;32.10;;;;;;5144855;27;46966;-16
2022/01/07 11:13:49;;;;;;;2.13;1.35;;;19.20;32.20;;;;;;5145318;27;46821;-16
2022/01/07 11:16:16;;;;;;;3.03;1.20;;;19.20;32.30;;;;;;5145449;27;47092;-16
2022/01/07 11:18:48;;;;;;;6.10;1.35;;;19.10;32.50;;;;;;5145347;27;47018;-16
2022/01/07 11:21:17;;;;;;;6.20;1.48;;;19.10;32.60;;;;;;5147410;27;47184;-16
2022/01/07 11:23:43;;;;;;;3.10;1.05;;;19.00;32.70;;;;;;5149303;27;47061;-16
2022/01/07 11:26:11;;;;;;;2.95;0.95;;;19.00;32.80;;;;;;5149943;27;46926;-16
2022/01/07 11:28:53;;;;;;;4.38;1.10;;;18.90;32.90;;;;;;5150014;27;47923;-16
2022/01/07 11:31:20;;;;;;;2.10;1.30;;;18.90;33.10;;;;;;5150322;27;47089;-16
2022/01/07 11:33:48;;;;;;;3.55;1.10;;;18.80;31.60;;;;;;5150108;27;46883;-15
2022/01/07 11:36:34;;;;;;;2.10;1.02;;;18.70;31.40;;;;;;5150044;27;47311;-16
2022/01/07 11:39:03;;;;;;;4.80;1.48;;;18.60;31.00;;;;;;5150059;27;47834;-15
2022/01/07 11:41:42;;;;;;;3.13;1.27;;;18.60;31.30;;;;;;5149609;27;47152;-16
2022/01/07 11:44:13;;;;;;;3.28;1.20;;;18.60;31.60;;;;;;5149841;27;46828;-16
2022/01/07 11:46:40;;;;;;;3.22;1.40;;;18.80;32.20;;;;;;5150199;27;47114;-15
2022/01/07 11:49:30;;;;;;;4.28;1.00;;;18.90;32.20;;;;;;5149933;27;46897;-17
2022/01/07 11:51:57;;;;;;;2.88;1.42;;;19.10;31.90;;;;;;5148801;27;47493;-16
2022/01/07 11:54:25;;;;;;;1.45;0.98;;;19.30;31.80;;;;;;5150050;27;46829;-17
2022/01/07 11:56:52;;;;;;;3.17;1.10;;;19.40;31.60;;;;;;5148736;27;47271;-16
2022/01/07 11:59:23;;;;;;;2.47;1.10;;;19.50;31.50;;;;;;5149511;27;47858;-16
2022/01/07 12:02:02;;;;;;;3.47;1.17;;;19.60;31.40;;;;;;5149424;27;46836;-17
2022/01/07 12:04:31;;;;;;;2.88;1.13;;;19.60;31.40;;;;;;5149902;27;46920;-15
2022/01/07 12:07:00;;;;;;;3.65;1.00;;;19.70;31.50;;;;;;5149211;27;46889;-16
2022/01/07 12:09:37;;;;;;;2.70;1.10;;;19.70;31.70;;;;;;5149165;27;49826;-16
2022/01/07 12:12:06;;;;;;;3.55;0.88;;;19.70;31.70;;;;;;5149354;27;47423;-16
2022/01/07 12:14:37;;;;;;;1.17;1.02;;;19.70;31.60;;;;;;5148457;27;46980;-17
2022/01/07 12:17:05;;;;;;;2.42;0.95;;;19.70;31.60;;;;;;5150015;27;46790;-17
2022/01/07 12:20:19;;;;;;;1.73;1.00;;;19.60;31.70;;;;;;5149571;27;47980;-16
2022/01/07 12:22:52;;;;;;;3.35;0.75;;;19.60;31.90;;;;;;5149491;27;46836;-16
2022/01/07 12:25:19;;;;;;;4.30;1.25;;;19.60;31.90;;;;;;5149355;27;46875;-16
2022/01/07 12:27:46;;;;;;;2.38;0.90;;;19.50;32.10;;;;;;5149802;27;46883;-16
2022/01/07 12:30:13;;;;;;;1.38;1.00;;;19.50;32.20;;;;;;5148913;27;49225;-15
2022/01/07 12:32:40;;;;;;;1.55;0.88;;;19.40;33.00;;;;;;5148435;27;46993;-16
2022/01/07 12:35:09;;;;;;;2.42;1.00;;;19.40;32.50;;;;;;5148353;27;46805;-15
2022/01/07 12:37:35;;;;;;;3.40;1.05;;;19.30;32.60;;;;;;5149610;27;46886;-15
2022/01/07 12:40:05;;;;;;;1.50;1.00;;;19.30;32.70;;;;;;5149248;27;46962;-15
2022/01/07 12:42:35;;;;;;;4.00;0.95;;;19.20;32.70;;;;;;5148854;27;46886;-15
2022/01/07 12:45:01;;;;;;;0.82;0.80;;;19.20;32.90;;;;;;5148846;27;47015;-15
2022/01/07 12:47:29;;;;;;;1.65;1.17;;;19.20;33.00;;;;;;5149513;27;46889;-15
2022/01/07 12:49:56;;;;;;;1.38;0.80;;;19.10;33.00;;;;;;5148932;27;47065;-15
2022/01/07 12:52:24;;;;;;;1.70;0.98;;;19.10;33.10;;;;;;5148760;27;46864;-15
2022/01/07 12:54:55;;;;;;;1.55;1.00;;;19.00;33.20;;;;;;5149016;27;46798;-15
2022/01/07 12:57:31;;;;;;;1.40;0.80;;;19.00;33.30;;;;;;5149117;27;46839;-15